Time;durP1;ratioP1;P1;durP2;ratioP2;P2;SDS_P1;SDS_P2;PMS_P1;PMS_P2;Temp;Humidity;BMP_temperature;BMP_pressure;BME280_temperature;BME280_humidity;BME280_pressure;Samples;Min_cycle;Max_cycle;Signal;HPM_P1;HPM_P2
2023/06/11 00:03:07;;;;;;;3.90;2.37;;;11.90;1.00;;;;;;8271181;28;20204;-66
2023/06/11 00:07:08;;;;;;;3.43;2.43;;;12.00;1.00;;;;;;8255659;28;20198;-66
2023/06/11 00:11:09;;;;;;;4.13;2.90;;;11.90;1.00;;;;;;8272857;28;20239;-68
2023/06/11 00:15:11;;;;;;;3.33;2.43;;;11.80;1.00;;;;;;8256541;28;20179;-66
2023/06/11 00:19:12;;;;;;;3.93;2.60;;;11.70;1.00;;;;;;8257683;28;20282;-66
2023/06/11 00:23:14;;;;;;;3.07;2.30;;;11.50;1.00;;;;;;8283638;28;20203;-67
2023/06/11 00:27:14;;;;;;;4.20;2.50;;;11.30;1.00;;;;;;8258979;28;20203;-66
2023/06/11 00:31:15;;;;;;;4.63;2.47;;;11.20;6.50;;;;;;8270774;28;20196;-66
2023/06/11 00:35:17;;;;;;;3.77;2.37;;;11.10;13.90;;;;;;8273432;28;20265;-67
2023/06/11 00:39:18;;;;;;;2.87;2.33;;;11.10;25.10;;;;;;8260592;28;20180;-66
2023/06/11 00:43:22;;;;;;;3.80;2.80;;;11.00;46.00;;;;;;8268456;28;20184;-66
2023/06/11 00:47:22;;;;;;;3.87;2.30;;;10.90;63.10;;;;;;8271999;28;20195;-66
2023/06/11 00:51:25;;;;;;;3.40;2.50;;;10.80;87.20;;;;;;8258041;28;20210;-67
2023/06/11 00:55:27;;;;;;;2.97;2.33;;;10.80;95.20;;;;;;8252710;28;20188;-66
2023/06/11 00:59:33;;;;;;;5.67;2.50;;;10.80;99.90;;;;;;8259748;28;20188;-66
2023/06/11 01:03:34;;;;;;;4.93;2.63;;;10.80;99.90;;;;;;8271983;28;20295;-67
2023/06/11 01:07:41;;;;;;;2.93;2.43;;;10.80;99.90;;;;;;8255961;28;20232;-67
2023/06/11 01:11:42;;;;;;;5.77;2.80;;;10.70;99.90;;;;;;8267107;28;20199;-66
2023/06/11 01:15:43;;;;;;;3.23;2.40;;;10.70;99.90;;;;;;8259634;28;20175;-66
2023/06/11 01:20:12;;;;;;;2.80;2.00;;;10.60;99.90;;;;;;8269006;28;20225;-66
2023/06/11 01:24:26;;;;;;;2.80;2.40;;;10.50;99.90;;;;;;8269919;28;20246;-66
2023/06/11 01:28:31;;;;;;;4.40;2.53;;;10.50;99.90;;;;;;8255415;28;20215;-67
2023/06/11 01:32:39;;;;;;;4.47;2.33;;;10.40;99.90;;;;;;8260078;28;20226;-66
2023/06/11 01:36:40;;;;;;;3.13;2.20;;;10.40;99.90;;;;;;8259676;28;20231;-66
2023/06/11 01:40:41;;;;;;;3.27;2.23;;;10.30;99.90;;;;;;8254452;28;20191;-67
2023/06/11 01:44:42;;;;;;;3.77;2.20;;;10.30;99.90;;;;;;8265211;28;20197;-66
2023/06/11 01:48:43;;;;;;;2.93;2.17;;;10.20;99.90;;;;;;8255602;28;20219;-68
2023/06/11 01:52:45;;;;;;;4.03;2.50;;;10.10;99.90;;;;;;8267443;28;20211;-67
2023/06/11 01:56:46;;;;;;;5.80;2.30;;;10.00;99.90;;;;;;8257522;28;20184;-68
2023/06/11 02:00:49;;;;;;;3.87;2.70;;;10.00;99.90;;;;;;8265757;28;20200;-67
2023/06/11 02:04:50;;;;;;;4.47;3.00;;;9.90;99.90;;;;;;8284809;28;20269;-67
2023/06/11 02:08:51;;;;;;;2.97;2.43;;;9.90;99.90;;;;;;8253239;28;20314;-70
2023/06/11 02:12:52;;;;;;;3.23;2.40;;;9.80;99.90;;;;;;8252943;28;20184;-69
2023/06/11 02:16:53;;;;;;;3.23;2.37;;;9.80;99.90;;;;;;8266456;28;20183;-69
2023/06/11 02:20:55;;;;;;;2.53;2.23;;;9.70;99.90;;;;;;8249844;28;20191;-67
2023/06/11 02:24:57;;;;;;;3.30;2.70;;;9.70;99.90;;;;;;8259936;28;20266;-67
2023/06/11 02:29:00;;;;;;;3.10;2.27;;;9.60;99.90;;;;;;8256750;28;20222;-68
2023/06/11 02:33:01;;;;;;;2.97;2.40;;;9.50;99.90;;;;;;8279699;28;20210;-69
2023/06/11 02:37:05;;;;;;;3.03;2.27;;;9.50;99.90;;;;;;8255318;28;20203;-66
2023/06/11 02:41:06;;;;;;;3.07;2.43;;;9.40;99.90;;;;;;8284989;28;20229;-67
2023/06/11 02:45:08;;;;;;;4.73;2.83;;;9.40;99.90;;;;;;8255782;28;20191;-68
2023/06/11 02:49:09;;;;;;;3.27;2.57;;;9.40;1.00;;;;;;8252195;28;20220;-68
2023/06/11 02:53:09;;;;;;;3.03;2.37;;;9.40;1.00;;;;;;8251734;28;20187;-68
2023/06/11 02:57:10;;;;;;;3.23;2.50;;;9.40;1.00;;;;;;8253167;28;20215;-71
2023/06/11 03:01:11;;;;;;;2.93;2.20;;;9.50;1.00;;;;;;8266434;28;20179;-70
2023/06/11 03:05:12;;;;;;;3.60;2.67;;;9.60;1.00;;;;;;8249184;28;20253;-69
2023/06/11 03:09:13;;;;;;;3.13;2.73;;;9.70;1.00;;;;;;8282163;28;20281;-70
2023/06/11 03:13:14;;;;;;;3.83;2.73;;;9.80;1.00;;;;;;8266157;28;20183;-69
2023/06/11 03:17:15;;;;;;;4.50;2.80;;;10.30;99.90;;;;;;8254467;28;20187;-70
2023/06/11 03:21:19;;;;;;;4.17;2.70;;;10.90;99.90;;;;;;8254087;28;20222;-69
2023/06/11 03:25:20;;;;;;;2.93;2.53;;;11.50;99.90;;;;;;8255741;28;20196;-70
2023/06/11 03:29:21;;;;;;;3.53;2.60;;;12.30;99.90;;;;;;8254544;28;20225;-69
2023/06/11 03:33:22;;;;;;;3.97;2.80;;;13.00;96.70;;;;;;8253371;28;20192;-68
2023/06/11 03:37:23;;;;;;;4.53;3.00;;;13.70;19.50;;;;;;8268382;28;20221;-69
2023/06/11 03:41:25;;;;;;;3.67;2.80;;;14.40;1.00;;;;;;8250968;28;20287;-69
2023/06/11 03:45:27;;;;;;;4.43;2.50;;;14.90;1.00;;;;;;8267114;28;20194;-70
2023/06/11 03:49:28;;;;;;;3.60;2.63;;;15.50;1.00;;;;;;8261571;28;20219;-70
2023/06/11 03:53:29;;;;;;;4.13;2.53;;;16.10;1.00;;;;;;8247263;28;20306;-69
2023/06/11 03:57:30;;;;;;;4.30;2.77;;;16.70;1.00;;;;;;8255744;28;20203;-69
2023/06/11 04:01:31;;;;;;;4.57;3.07;;;17.30;1.00;;;;;;8267507;28;20199;-69
2023/06/11 04:05:36;;;;;;;3.47;2.67;;;17.70;1.00;;;;;;8254152;28;20244;-69
2023/06/11 04:09:40;;;;;;;4.57;2.90;;;18.10;1.00;;;;;;8264866;28;20270;-69
2023/06/11 04:13:49;;;;;;;4.17;3.30;;;18.60;1.00;;;;;;8256627;28;20195;-70
2023/06/11 04:17:53;;;;;;;4.53;2.90;;;19.10;1.00;;;;;;8269686;28;20268;-69
2023/06/11 04:21:54;;;;;;;4.40;3.00;;;19.20;1.00;;;;;;8274171;28;20223;-70
2023/06/11 04:25:58;;;;;;;3.57;2.87;;;19.70;1.00;;;;;;8269941;28;20195;-71
2023/06/11 04:30:00;;;;;;;5.80;3.37;;;20.20;1.00;;;;;;8261169;28;20218;-71
2023/06/11 04:34:03;;;;;;;3.80;3.13;;;20.50;1.00;;;;;;8263313;28;20191;-70
2023/06/11 04:38:05;;;;;;;4.83;3.50;;;20.60;1.00;;;;;;8268494;28;20261;-70
2023/06/11 04:42:06;;;;;;;5.33;3.30;;;20.40;1.00;;;;;;8271513;28;20195;-70
2023/06/11 04:46:07;;;;;;;4.67;3.67;;;20.30;1.00;;;;;;8267274;28;20188;-70
2023/06/11 04:50:08;;;;;;;7.03;3.90;;;20.40;1.00;;;;;;8261307;28;20215;-70
2023/06/11 04:54:09;;;;;;;5.63;3.33;;;20.50;1.00;;;;;;8269416;28;20191;-70
2023/06/11 04:58:13;;;;;;;5.47;3.37;;;20.70;1.00;;;;;;8260958;28;20195;-70
2023/06/11 05:02:15;;;;;;;4.63;3.73;;;20.80;1.00;;;;;;8271769;28;20194;-70
2023/06/11 05:06:21;;;;;;;6.37;3.57;;;21.20;1.00;;;;;;8274441;28;20244;-70
2023/06/11 05:10:22;;;;;;;5.30;3.83;;;21.50;1.00;;;;;;8271923;28;20218;-70
2023/06/11 05:14:22;;;;;;;3.50;3.20;;;21.30;1.00;;;;;;8269228;28;20242;-69
2023/06/11 05:18:28;;;;;;;7.20;4.20;;;20.80;1.00;;;;;;8259470;28;20193;-71
2023/06/11 05:22:29;;;;;;;8.23;3.27;;;20.30;1.00;;;;;;8266833;28;20197;-71
2023/06/11 05:26:32;;;;;;;9.67;3.97;;;19.80;1.00;;;;;;8273455;28;20218;-72
2023/06/11 05:30:43;;;;;;;5.13;4.27;;;19.60;1.00;;;;;;8252369;28;20204;-69
2023/06/11 05:34:44;;;;;;;8.03;4.70;;;19.20;1.00;;;;;;8265251;28;20185;-70
2023/06/11 05:38:45;;;;;;;8.03;4.40;;;19.00;1.00;;;;;;8259096;28;20222;-71
2023/06/11 05:42:45;;;;;;;8.60;4.87;;;19.00;1.00;;;;;;8266672;28;20205;-71
2023/06/11 05:46:53;;;;;;;5.60;4.37;;;19.00;1.00;;;;;;8258275;28;20187;-72
2023/06/11 05:50:55;;;;;;;9.03;5.30;;;19.20;1.00;;;;;;8267355;28;20214;-70
2023/06/11 05:54:56;;;;;;;7.30;5.30;;;19.40;1.00;;;;;;8271696;28;20194;-72
2023/06/11 05:58:57;;;;;;;8.03;5.50;;;19.50;1.00;;;;;;8258278;28;20275;-69
2023/06/11 06:02:58;;;;;;;8.40;5.93;;;19.70;1.00;;;;;;8255947;28;20211;-71
2023/06/11 06:06:59;;;;;;;7.73;5.47;;;19.80;1.00;;;;;;8252804;28;20229;-71
2023/06/11 06:11:00;;;;;;;9.20;7.00;;;19.90;1.00;;;;;;8265712;28;20285;-70
2023/06/11 06:15:01;;;;;;;8.13;7.40;;;20.00;1.00;;;;;;8258690;28;20302;-70
2023/06/11 06:19:02;;;;;;;8.60;6.80;;;20.10;1.00;;;;;;8255150;28;20194;-69
2023/06/11 06:23:04;;;;;;;12.73;7.37;;;20.20;1.00;;;;;;8254857;28;20187;-71
2023/06/11 06:27:17;;;;;;;8.43;7.13;;;20.30;1.00;;;;;;8273024;28;20262;-71
2023/06/11 06:31:20;;;;;;;7.93;7.23;;;20.40;1.00;;;;;;8268939;28;20271;-71
2023/06/11 06:35:24;;;;;;;7.73;6.77;;;20.50;1.00;;;;;;8254924;28;20191;-70
2023/06/11 06:39:25;;;;;;;8.70;7.60;;;20.60;1.00;;;;;;8251230;28;20201;-70
2023/06/11 06:43:26;;;;;;;6.93;6.23;;;20.70;1.00;;;;;;8267870;28;20188;-71
2023/06/11 06:47:27;;;;;;;7.13;6.43;;;20.90;1.00;;;;;;8265032;28;20212;-71
2023/06/11 06:51:29;;;;;;;7.87;6.60;;;21.00;1.00;;;;;;8272896;28;20198;-74
2023/06/11 06:55:30;;;;;;;9.23;7.67;;;21.10;1.00;;;;;;8254043;28;20223;-70
2023/06/11 06:59:31;;;;;;;8.60;7.23;;;21.10;1.00;;;;;;8254426;28;20189;-71
2023/06/11 07:03:35;;;;;;;8.30;6.43;;;21.00;1.00;;;;;;8251313;28;20217;-70
2023/06/11 07:07:36;;;;;;;7.90;7.10;;;21.20;1.00;;;;;;8252615;28;20230;-70
2023/06/11 07:11:37;;;;;;;8.17;7.03;;;21.40;1.00;;;;;;8271286;28;20269;-71
2023/06/11 07:15:38;;;;;;;6.97;6.33;;;21.60;1.00;;;;;;8254281;28;20199;-70
2023/06/11 07:19:38;;;;;;;11.70;6.80;;;21.60;1.00;;;;;;8267792;28;20262;-71
2023/06/11 07:23:40;;;;;;;7.13;6.43;;;21.70;1.00;;;;;;8270703;28;20191;-71
2023/06/11 07:27:42;;;;;;;6.93;6.30;;;21.80;1.00;;;;;;8267489;28;20223;-69
2023/06/11 07:31:43;;;;;;;6.80;6.20;;;21.80;1.00;;;;;;8265522;28;20184;-70
2023/06/11 07:35:46;;;;;;;6.50;5.90;;;21.90;1.00;;;;;;8270139;28;20188;-71
2023/06/11 07:39:47;;;;;;;7.03;6.37;;;22.20;1.00;;;;;;8270834;28;20183;-71
2023/06/11 07:43:48;;;;;;;6.30;5.70;;;22.40;1.00;;;;;;8273764;28;20195;-70
2023/06/11 07:47:49;;;;;;;7.47;6.40;;;22.60;1.00;;;;;;8256465;28;20237;-71
2023/06/11 07:51:50;;;;;;;7.57;6.43;;;22.70;1.00;;;;;;8290666;28;20188;-70
2023/06/11 07:55:56;;;;;;;9.63;6.43;;;22.80;1.00;;;;;;8277109;28;20253;-75
2023/06/11 08:00:03;;;;;;;6.87;5.77;;;22.80;1.00;;;;;;8262979;28;20249;-71
2023/06/11 08:04:04;;;;;;;7.00;5.90;;;23.00;1.00;;;;;;8274359;28;20216;-71
2023/06/11 08:08:08;;;;;;;6.87;5.97;;;23.40;1.00;;;;;;8261137;28;20218;-74
2023/06/11 08:12:11;;;;;;;6.43;5.83;;;23.70;1.00;;;;;;8260272;28;20188;-71
2023/06/11 08:16:12;;;;;;;5.70;5.20;;;23.90;1.00;;;;;;8263001;28;20192;-71
2023/06/11 08:20:16;;;;;;;6.13;4.87;;;24.00;1.00;;;;;;8261743;28;20195;-71
2023/06/11 08:24:18;;;;;;;7.10;6.07;;;24.30;1.00;;;;;;8258283;28;20306;-71
2023/06/11 08:28:20;;;;;;;6.17;5.57;;;24.70;1.00;;;;;;8258713;28;20222;-72
2023/06/11 08:32:21;;;;;;;5.80;5.20;;;24.80;1.00;;;;;;8258742;28;20318;-73
2023/06/11 08:36:22;;;;;;;8.37;5.60;;;24.70;1.00;;;;;;8255732;28;20190;-72
2023/06/11 08:40:23;;;;;;;5.90;5.10;;;24.90;1.00;;;;;;8272571;28;20197;-72
2023/06/11 08:44:24;;;;;;;6.60;4.97;;;24.70;1.00;;;;;;8257251;28;20195;-73
2023/06/11 08:48:30;;;;;;;7.30;5.03;;;24.70;1.00;;;;;;8273303;28;20282;-71
2023/06/11 08:52:34;;;;;;;7.97;5.53;;;24.80;1.00;;;;;;8274697;28;20188;-71
2023/06/11 08:56:35;;;;;;;5.70;4.83;;;25.00;1.00;;;;;;8277559;28;20179;-73
2023/06/11 09:00:37;;;;;;;6.80;5.27;;;24.90;1.00;;;;;;8261765;28;20194;-72
2023/06/11 09:04:46;;;;;;;5.50;5.00;;;25.10;1.00;;;;;;8263614;28;20218;-71
2023/06/11 09:09:05;;;;;;;5.63;5.13;;;25.10;1.00;;;;;;8272734;28;20235;-72
2023/06/11 09:13:07;;;;;;;6.43;5.83;;;25.10;1.00;;;;;;8271851;28;20184;-72
2023/06/11 09:17:15;;;;;;;6.33;5.73;;;25.20;1.00;;;;;;8269781;28;20208;-73
2023/06/11 09:21:17;;;;;;;6.03;5.43;;;25.40;1.00;;;;;;8269971;28;20196;-73
2023/06/11 09:25:19;;;;;;;7.03;5.43;;;25.80;1.00;;;;;;8260346;28;20187;-71
2023/06/11 09:29:24;;;;;;;7.03;5.60;;;25.60;1.00;;;;;;8267169;28;20231;-70
2023/06/11 09:33:25;;;;;;;5.63;5.13;;;25.20;1.00;;;;;;8257009;28;20312;-73
2023/06/11 09:37:27;;;;;;;5.53;4.67;;;25.10;1.00;;;;;;8267986;28;20256;-71
2023/06/11 09:41:28;;;;;;;8.57;4.50;;;25.10;1.00;;;;;;8273855;28;20192;-71
2023/06/11 09:45:36;;;;;;;5.57;4.83;;;25.10;1.00;;;;;;8250760;28;20195;-70
2023/06/11 09:49:39;;;;;;;7.07;4.37;;;25.00;1.00;;;;;;8287493;28;20217;-70
2023/06/11 09:53:41;;;;;;;5.70;5.10;;;24.70;1.00;;;;;;8271264;28;20186;-72
2023/06/11 09:57:43;;;;;;;5.10;4.60;;;24.70;1.00;;;;;;8270121;28;20195;-71
2023/06/11 10:01:47;;;;;;;6.87;5.30;;;24.80;99.90;;;;;;8271171;28;20196;-71
2023/06/11 10:05:48;;;;;;;6.03;5.07;;;24.60;99.90;;;;;;8271885;28;20285;-72
2023/06/11 10:09:52;;;;;;;5.03;4.40;;;24.80;99.90;;;;;;8258836;28;20354;-69
2023/06/11 10:14:01;;;;;;;7.23;4.07;;;25.10;99.90;;;;;;8269604;28;20214;-72
2023/06/11 10:18:11;;;;;;;5.97;4.23;;;25.30;99.90;;;;;;8284010;28;20200;-72
2023/06/11 10:22:12;;;;;;;6.37;4.93;;;25.90;99.90;;;;;;8270179;28;20197;-69
2023/06/11 10:26:13;;;;;;;6.03;4.60;;;26.30;99.90;;;;;;8268980;28;20195;-72
2023/06/11 10:30:24;;;;;;;4.93;4.43;;;26.10;99.90;;;;;;8255580;28;20222;-69
2023/06/11 10:34:25;;;;;;;6.13;4.93;;;25.90;99.90;;;;;;8271709;28;20244;-71
2023/06/11 10:38:29;;;;;;;8.07;4.73;;;25.80;99.90;;;;;;8259830;28;20256;-71
2023/06/11 10:42:44;;;;;;;6.17;4.33;;;26.00;99.90;;;;;;8250991;28;20199;-70
2023/06/11 10:46:53;;;;;;;7.37;4.60;;;26.10;99.90;;;;;;8251510;28;20199;-72
2023/06/11 10:51:08;;;;;;;7.25;4.30;;;26.20;99.90;;;;;;8273324;28;20319;-71
2023/06/11 10:55:13;;;;;;;6.25;4.95;;;26.50;99.90;;;;;;8254139;28;20302;-72
2023/06/11 10:59:16;;;;;;;4.93;4.20;;;26.60;99.90;;;;;;8283617;28;20295;-71
2023/06/11 11:03:21;;;;;;;7.32;4.93;;;26.60;99.90;;;;;;8259500;28;20219;-70
2023/06/11 11:07:33;;;;;;;5.00;4.40;;;26.60;99.90;;;;;;8263661;28;20239;-72
2023/06/11 11:11:35;;;;;;;4.80;3.95;;;26.70;99.90;;;;;;8285142;28;20263;-71
2023/06/11 11:15:41;;;;;;;4.63;4.20;;;26.90;99.90;;;;;;8264338;28;20187;-72
2023/06/11 11:19:44;;;;;;;4.72;4.18;;;26.80;99.90;;;;;;8265134;28;20196;-71
2023/06/11 11:23:49;;;;;;;5.07;4.63;;;26.70;99.90;;;;;;8251617;28;20203;-70
2023/06/11 11:27:50;;;;;;;6.83;4.73;;;26.60;99.90;;;;;;8265607;28;20266;-70
2023/06/11 11:31:51;;;;;;;5.70;4.10;;;26.40;99.90;;;;;;8254127;28;20198;-70
2023/06/11 11:35:59;;;;;;;10.88;4.50;;;26.40;99.90;;;;;;8280578;28;20195;-73
2023/06/11 11:40:06;;;;;;;4.47;4.07;;;26.60;99.90;;;;;;8268849;28;20211;-71
2023/06/11 11:44:07;;;;;;;7.05;4.60;;;26.70;99.90;;;;;;8268145;28;20343;-68
2023/06/11 11:48:09;;;;;;;4.33;3.93;;;26.60;99.90;;;;;;8253667;28;20207;-71
2023/06/11 11:52:11;;;;;;;4.63;4.13;;;26.10;99.90;;;;;;8271116;28;20198;-71
2023/06/11 11:56:16;;;;;;;7.27;4.50;;;25.60;99.90;;;;;;8286034;28;20199;-71
2023/06/11 12:00:25;;;;;;;4.43;3.90;;;25.80;99.90;;;;;;8253056;28;20191;-70
2023/06/11 12:04:42;;;;;;;4.20;3.73;;;25.90;99.90;;;;;;8257765;28;20215;-72
2023/06/11 12:08:43;;;;;;;4.67;3.73;;;26.00;99.90;;;;;;8269356;28;20315;-71
2023/06/11 12:12:44;;;;;;;6.20;3.40;;;26.50;99.90;;;;;;8267720;28;20183;-70
2023/06/11 12:16:49;;;;;;;5.72;3.72;;;26.70;99.90;;;;;;8283214;28;20184;-70
2023/06/11 12:20:51;;;;;;;5.03;4.07;;;26.90;99.90;;;;;;8267018;28;20198;-70
2023/06/11 12:24:52;;;;;;;7.15;3.63;;;27.00;99.90;;;;;;8256823;28;20191;-69
2023/06/11 12:28:53;;;;;;;4.38;3.97;;;27.10;99.90;;;;;;8266163;28;20271;-69
2023/06/11 12:32:54;;;;;;;7.72;3.90;;;27.10;99.90;;;;;;8254413;28;20222;-71
2023/06/11 12:36:56;;;;;;;7.03;3.78;;;26.90;99.90;;;;;;8259908;28;20211;-75
2023/06/11 12:40:57;;;;;;;6.05;4.68;;;26.60;99.90;;;;;;8275496;28;20196;-71
2023/06/11 12:44:59;;;;;;;5.53;3.80;;;26.70;99.90;;;;;;8263567;28;20242;-72
2023/06/11 12:49:00;;;;;;;6.82;3.72;;;26.90;99.90;;;;;;8273431;28;20211;-72
2023/06/11 12:53:02;;;;;;;3.88;3.42;;;27.00;99.90;;;;;;8276960;28;20185;-73
2023/06/11 12:57:04;;;;;;;4.35;3.75;;;27.10;99.90;;;;;;8293123;28;20191;-70
2023/06/11 13:01:06;;;;;;;3.97;3.38;;;27.20;99.90;;;;;;8290022;28;20191;-72
2023/06/11 13:05:07;;;;;;;5.35;3.80;;;27.00;99.90;;;;;;8271806;28;20220;-69
2023/06/11 13:09:08;;;;;;;5.20;3.50;;;26.90;99.90;;;;;;8271280;28;20224;-70
2023/06/11 13:13:09;;;;;;;5.13;3.33;;;26.50;99.90;;;;;;8287328;28;20202;-70
2023/06/11 13:17:13;;;;;;;5.27;3.27;;;26.30;99.90;;;;;;8257357;28;20220;-71
2023/06/11 13:21:15;;;;;;;4.57;3.60;;;26.30;99.90;;;;;;8271731;28;20226;-72
2023/06/11 13:25:16;;;;;;;7.00;3.80;;;26.40;99.90;;;;;;8272937;28;20198;-71
2023/06/11 13:29:23;;;;;;;5.07;3.63;;;26.40;99.90;;;;;;8287647;28;20226;-71
2023/06/11 13:33:24;;;;;;;5.20;3.40;;;26.50;99.90;;;;;;8252259;28;20275;-70
2023/06/11 13:37:24;;;;;;;6.60;3.90;;;26.50;99.90;;;;;;8272809;28;20187;-74
2023/06/11 13:41:26;;;;;;;3.80;3.45;;;26.50;99.90;;;;;;8273575;28;20219;-68
2023/06/11 13:45:27;;;;;;;3.23;2.93;;;26.30;99.90;;;;;;8261771;28;20200;-73
2023/06/11 13:49:28;;;;;;;9.77;3.80;;;26.40;99.90;;;;;;8271954;28;20213;-71
2023/06/11 13:53:29;;;;;;;6.53;3.67;;;26.30;99.90;;;;;;8255550;28;20204;-70
2023/06/11 13:57:33;;;;;;;4.20;3.50;;;26.40;99.90;;;;;;8273125;28;20180;-69
2023/06/11 14:01:34;;;;;;;5.18;3.63;;;26.60;99.90;;;;;;8268963;28;20198;-71
2023/06/11 14:05:36;;;;;;;6.22;4.50;;;26.70;99.90;;;;;;8262040;28;20223;-72
2023/06/11 14:09:37;;;;;;;6.30;3.20;;;26.70;99.90;;;;;;8265983;28;20225;-71
2023/06/11 14:13:38;;;;;;;4.50;3.10;;;26.60;99.90;;;;;;8271001;28;20250;-70
2023/06/11 14:17:41;;;;;;;6.10;3.55;;;26.40;99.90;;;;;;8265380;28;20194;-70
2023/06/11 14:21:42;;;;;;;6.77;3.27;;;26.30;99.90;;;;;;8283969;28;20273;-72
2023/06/11 14:25:44;;;;;;;5.37;3.67;;;26.30;99.90;;;;;;8272818;28;20188;-72
2023/06/11 14:29:45;;;;;;;6.30;3.33;;;26.00;99.90;;;;;;8254615;28;20306;-70
2023/06/11 14:33:47;;;;;;;10.30;3.57;;;26.00;99.90;;;;;;8257846;28;20357;-70
2023/06/11 14:37:47;;;;;;;4.80;3.37;;;26.00;99.90;;;;;;8250126;28;20191;-72
2023/06/11 14:41:49;;;;;;;5.17;3.40;;;26.00;99.90;;;;;;8284947;28;20206;-71
2023/06/11 14:45:50;;;;;;;7.83;3.43;;;26.00;99.90;;;;;;8254397;28;20196;-68
2023/06/11 14:49:52;;;;;;;5.27;3.10;;;26.10;99.90;;;;;;8268210;28;20219;-71
2023/06/11 14:53:53;;;;;;;4.87;3.27;;;26.00;99.90;;;;;;8265340;28;20218;-69
2023/06/11 14:57:54;;;;;;;3.40;3.10;;;26.00;99.90;;;;;;8254945;28;20218;-70
2023/06/11 15:01:55;;;;;;;3.67;3.30;;;26.00;99.90;;;;;;8258771;28;20204;-71
2023/06/11 15:06:03;;;;;;;7.70;3.67;;;26.00;99.90;;;;;;8254602;28;20227;-70
2023/06/11 15:10:07;;;;;;;4.37;3.10;;;26.00;99.90;;;;;;8274018;28;20251;-70
2023/06/11 15:14:08;;;;;;;6.43;2.97;;;26.00;99.90;;;;;;8258238;28;20254;-69
2023/06/11 15:18:11;;;;;;;3.67;2.87;;;26.00;99.90;;;;;;8254826;28;20190;-71
2023/06/11 15:22:12;;;;;;;4.47;2.90;;;26.00;99.90;;;;;;8268047;28;20218;-72
2023/06/11 15:26:13;;;;;;;3.83;2.83;;;25.80;99.90;;;;;;8282792;28;20194;-72
2023/06/11 15:30:14;;;;;;;3.27;2.73;;;25.80;99.90;;;;;;8254273;28;20245;-69
2023/06/11 15:34:16;;;;;;;3.90;2.90;;;25.70;99.90;;;;;;8265980;28;20191;-71
2023/06/11 15:38:16;;;;;;;3.30;2.80;;;25.60;99.90;;;;;;8267288;28;20192;-71
2023/06/11 15:42:18;;;;;;;2.57;2.30;;;25.60;99.90;;;;;;8252414;28;20190;-67
2023/06/11 15:46:20;;;;;;;6.27;3.17;;;25.60;99.90;;;;;;8253989;28;20218;-72
2023/06/11 15:50:20;;;;;;;5.60;3.07;;;25.60;99.90;;;;;;8251849;28;20219;-69
2023/06/11 15:54:21;;;;;;;3.93;2.53;;;25.60;99.90;;;;;;8269161;28;20194;-69
2023/06/11 15:58:29;;;;;;;3.13;2.83;;;25.50;99.90;;;;;;8252502;28;20191;-69
2023/06/11 16:02:31;;;;;;;5.03;2.60;;;25.40;99.90;;;;;;8281643;28;20191;-71
2023/06/11 16:06:32;;;;;;;3.30;2.50;;;25.50;99.90;;;;;;8270653;28;20204;-70
2023/06/11 16:10:33;;;;;;;4.27;2.67;;;25.40;99.90;;;;;;8268016;28;20211;-70
2023/06/11 16:14:34;;;;;;;4.30;2.77;;;25.40;99.90;;;;;;8261355;28;20187;-70
2023/06/11 16:18:35;;;;;;;3.63;2.47;;;25.40;99.90;;;;;;8256571;28;20191;-69
2023/06/11 16:22:39;;;;;;;5.20;2.53;;;25.40;99.90;;;;;;8259537;28;20187;-69
2023/06/11 16:26:40;;;;;;;2.90;2.63;;;25.30;99.90;;;;;;8272052;28;20195;-70
2023/06/11 16:30:41;;;;;;;6.10;3.00;;;25.20;99.90;;;;;;8261179;28;20212;-70
2023/06/11 16:34:45;;;;;;;4.07;2.63;;;25.10;99.90;;;;;;8253360;28;20180;-69
2023/06/11 16:38:46;;;;;;;4.97;2.67;;;25.00;99.90;;;;;;8288225;28;20277;-69
2023/06/11 16:42:47;;;;;;;5.13;2.53;;;25.00;99.90;;;;;;8258235;28;20199;-67
2023/06/11 16:46:49;;;;;;;11.90;6.27;;;25.00;99.90;;;;;;8269188;28;20209;-68
2023/06/11 16:50:50;;;;;;;6.07;3.00;;;25.00;99.90;;;;;;8262398;28;20227;-70
2023/06/11 16:54:51;;;;;;;7.83;2.97;;;24.90;99.90;;;;;;8269580;28;20261;-69
2023/06/11 16:58:54;;;;;;;5.97;2.80;;;24.90;99.90;;;;;;8258515;28;20217;-69
2023/06/11 17:02:55;;;;;;;7.03;4.63;;;24.90;99.90;;;;;;8268921;28;20269;-68
2023/06/11 17:06:56;;;;;;;9.13;4.03;;;24.80;99.90;;;;;;8257630;28;20405;-68
2023/06/11 17:10:58;;;;;;;5.43;2.70;;;24.70;99.90;;;;;;8257385;28;20229;-70
2023/06/11 17:15:00;;;;;;;4.93;3.00;;;24.90;99.90;;;;;;8270944;28;20191;-71
2023/06/11 17:19:03;;;;;;;7.33;3.50;;;25.50;99.90;;;;;;8271319;28;20195;-70
2023/06/11 17:23:06;;;;;;;4.07;3.00;;;26.30;99.90;;;;;;8271244;28;20187;-70
2023/06/11 17:27:07;;;;;;;3.78;2.97;;;27.10;99.90;;;;;;8254039;28;20202;-71
2023/06/11 17:31:12;;;;;;;6.03;3.47;;;27.90;99.90;;;;;;8255358;28;20354;-70
2023/06/11 17:35:13;;;;;;;4.03;3.28;;;28.40;99.90;;;;;;8271930;28;20274;-70
2023/06/11 17:39:14;;;;;;;5.80;2.95;;;28.80;99.90;;;;;;8254449;28;20279;-69
2023/06/11 17:43:16;;;;;;;6.00;3.53;;;29.10;99.90;;;;;;8273445;28;20198;-73
2023/06/11 17:47:17;;;;;;;6.22;2.60;;;29.40;99.90;;;;;;8269730;28;20198;-69
2023/06/11 17:51:18;;;;;;;3.40;3.08;;;29.60;99.90;;;;;;8255779;28;20211;-73
2023/06/11 17:55:20;;;;;;;3.42;2.28;;;29.80;99.90;;;;;;8256325;28;20192;-71
2023/06/11 17:59:21;;;;;;;3.53;2.53;;;29.40;99.90;;;;;;8251597;28;20192;-72
2023/06/11 18:03:22;;;;;;;5.05;1.92;;;28.10;99.90;;;;;;8254963;28;20206;-70
2023/06/11 18:07:23;;;;;;;4.68;2.25;;;27.80;99.90;;;;;;8268004;28;20277;-70
2023/06/11 18:11:24;;;;;;;3.30;2.05;;;27.80;99.90;;;;;;8253236;28;20227;-68
2023/06/11 18:15:25;;;;;;;2.95;1.95;;;27.80;99.90;;;;;;8271493;28;20219;-70
2023/06/11 18:19:26;;;;;;;4.32;1.80;;;28.10;99.90;;;;;;8254688;28;20191;-71
2023/06/11 18:23:27;;;;;;;2.88;2.60;;;28.20;99.90;;;;;;8253934;28;20191;-71
2023/06/11 18:27:28;;;;;;;2.53;2.10;;;28.00;99.90;;;;;;8268187;28;20218;-72
2023/06/11 18:31:29;;;;;;;4.25;2.35;;;28.00;99.90;;;;;;8269968;28;20298;-70
2023/06/11 18:35:31;;;;;;;3.20;2.47;;;27.20;99.90;;;;;;8249883;28;20184;-69
2023/06/11 18:39:32;;;;;;;7.83;2.60;;;25.80;99.90;;;;;;8273568;28;20305;-70
2023/06/11 18:43:33;;;;;;;4.90;2.47;;;24.80;99.90;;;;;;8252144;28;20183;-69
2023/06/11 18:47:35;;;;;;;3.10;2.47;;;24.40;99.90;;;;;;8284534;28;20191;-71
2023/06/11 18:51:39;;;;;;;4.10;3.10;;;23.90;99.90;;;;;;8270020;28;20215;-68
2023/06/11 18:55:40;;;;;;;3.60;2.43;;;23.60;99.90;;;;;;8283777;28;20191;-69
2023/06/11 18:59:41;;;;;;;4.33;2.73;;;23.10;99.90;;;;;;8268430;28;20188;-68
2023/06/11 19:03:42;;;;;;;6.83;2.90;;;22.40;99.90;;;;;;8252318;28;20218;-68
2023/06/11 19:07:43;;;;;;;5.10;3.10;;;21.80;99.90;;;;;;8256581;28;20203;-68
2023/06/11 19:11:44;;;;;;;4.43;3.43;;;21.40;99.90;;;;;;8269546;28;20183;-68
2023/06/11 19:15:46;;;;;;;4.40;3.00;;;20.90;99.90;;;;;;8266771;28;20195;-68
2023/06/11 19:19:47;;;;;;;3.10;2.60;;;20.60;99.90;;;;;;8257847;28;20233;-68
2023/06/11 19:23:49;;;;;;;4.30;2.53;;;20.30;99.90;;;;;;8268496;28;20191;-68
2023/06/11 19:27:50;;;;;;;4.33;3.03;;;20.00;99.90;;;;;;8257317;28;20195;-69
2023/06/11 19:31:54;;;;;;;7.47;3.67;;;19.70;99.90;;;;;;8279349;28;20214;-68
2023/06/11 19:35:55;;;;;;;8.27;3.37;;;19.50;99.90;;;;;;8266536;28;20183;-67
2023/06/11 19:39:56;;;;;;;4.03;2.70;;;19.20;99.90;;;;;;8269193;28;20198;-66
2023/06/11 19:43:58;;;;;;;3.30;2.60;;;18.90;99.90;;;;;;8281754;28;20219;-66
2023/06/11 19:47:59;;;;;;;4.43;3.10;;;18.70;99.90;;;;;;8257636;28;20314;-67
2023/06/11 19:52:00;;;;;;;5.37;3.80;;;18.40;99.90;;;;;;8272501;28;20191;-65
2023/06/11 19:56:01;;;;;;;6.33;2.87;;;18.10;99.90;;;;;;8260732;28;20193;-66
2023/06/11 20:00:03;;;;;;;3.93;3.37;;;17.80;99.90;;;;;;8262515;28;20197;-65
2023/06/11 20:04:06;;;;;;;4.27;3.27;;;17.60;99.90;;;;;;8259263;28;20210;-67
2023/06/11 20:08:08;;;;;;;5.10;3.90;;;17.30;99.90;;;;;;8274151;28;20235;-66
2023/06/11 20:12:10;;;;;;;7.60;4.10;;;17.10;99.90;;;;;;8269015;28;20191;-66
2023/06/11 20:16:12;;;;;;;6.67;3.60;;;16.80;99.90;;;;;;8259336;28;20193;-66
2023/06/11 20:20:13;;;;;;;5.50;3.43;;;16.50;99.90;;;;;;8273549;28;20188;-65
2023/06/11 20:24:14;;;;;;;6.43;2.83;;;16.20;99.90;;;;;;8273053;28;20188;-65
2023/06/11 20:28:15;;;;;;;7.10;3.77;;;15.90;99.90;;;;;;8256655;28;20207;-67
2023/06/11 20:32:17;;;;;;;4.70;2.50;;;15.70;99.90;;;;;;8284104;28;20245;-66
2023/06/11 20:36:18;;;;;;;4.60;2.90;;;15.30;99.90;;;;;;8260356;28;20224;-66
2023/06/11 20:40:19;;;;;;;4.63;3.43;;;14.90;99.90;;;;;;8270150;28;20190;-66
2023/06/11 20:44:20;;;;;;;5.77;3.70;;;14.70;1.00;;;;;;8269854;28;20187;-65
2023/06/11 20:48:21;;;;;;;4.83;3.20;;;14.50;1.00;;;;;;8255639;28;20240;-67
2023/06/11 20:52:26;;;;;;;3.10;2.20;;;14.20;1.00;;;;;;8253904;28;20183;-66
2023/06/11 20:56:30;;;;;;;2.53;1.90;;;13.90;1.00;;;;;;8285454;28;20190;-65
2023/06/11 21:00:31;;;;;;;2.63;2.00;;;13.70;1.00;;;;;;8255874;28;20197;-66
2023/06/11 21:04:32;;;;;;;3.43;2.40;;;13.50;1.00;;;;;;8267464;28;20306;-68
2023/06/11 21:08:33;;;;;;;2.47;1.97;;;13.40;1.00;;;;;;8268570;28;20241;-68